Time;durP1;ratioP1;P1;durP2;ratioP2;P2;SDS_P1;SDS_P2;PMS_P1;PMS_P2;Temp;Humidity;BMP_temperature;BMP_pressure;BME280_temperature;BME280_humidity;BME280_pressure;Samples;Min_cycle;Max_cycle;Signal;HPM_P1;HPM_P2
2023/05/23 00:01:36;;;;;;;12.45;8.18;;;;;;;;;;753082;185;919138;-60
2023/05/23 00:04:01;;;;;;;14.10;9.63;;;;;;;;;;746148;186;921456;-61
2023/05/23 00:06:27;;;;;;;17.43;8.17;;;;;;;;;;755565;185;918307;-61
2023/05/23 00:08:53;;;;;;;9.70;6.70;;;;;;;;;;746042;185;820275;-61
2023/05/23 00:11:22;;;;;;;21.45;7.35;;;;;;;;;;745660;185;918311;-61
2023/05/23 00:13:45;;;;;;;10.07;8.00;;;;;;;;;;746639;185;918986;-60
2023/05/23 00:16:10;;;;;;;11.97;7.63;;;;;;;;;;752744;185;919911;-61
2023/05/23 00:18:36;;;;;;;7.50;6.60;;;;;;;;;;748552;185;919405;-60
2023/05/23 00:21:02;;;;;;;10.07;6.68;;;;;;;;;;745530;186;919855;-60
2023/05/23 00:23:28;;;;;;;16.77;6.60;;;;;;;;;;750847;186;914604;-60
2023/05/23 00:25:54;;;;;;;7.93;6.23;;;;;;;;;;746872;185;922225;-60
2023/05/23 00:28:20;;;;;;;9.13;7.57;;;;;;;;;;747337;186;921068;-60
2023/05/23 00:30:46;;;;;;;17.00;7.03;;;;;;;;;;753094;185;919185;-60
2023/05/23 00:33:13;;;;;;;10.50;7.30;;;;;;;;;;748388;184;919620;-60
2023/05/23 00:35:37;;;;;;;9.80;7.53;;;;;;;;;;746289;186;919414;-60
2023/05/23 00:38:06;;;;;;;9.83;7.23;;;;;;;;;;749426;185;918333;-61
2023/05/23 00:40:30;;;;;;;9.80;6.67;;;;;;;;;;744085;187;919470;-61
2023/05/23 00:42:56;;;;;;;10.03;6.20;;;;;;;;;;744800;186;828430;-61
2023/05/23 00:45:22;;;;;;;9.50;7.00;;;;;;;;;;746986;185;919525;-61
2023/05/23 00:47:47;;;;;;;14.43;7.53;;;;;;;;;;754372;185;921177;-61
2023/05/23 00:50:14;;;;;;;11.50;7.30;;;;;;;;;;747177;186;913818;-60
2023/05/23 00:52:40;;;;;;;11.83;8.60;;;;;;;;;;743725;186;917737;-61
2023/05/23 00:55:07;;;;;;;11.30;7.60;;;;;;;;;;757152;186;909471;-61
2023/05/23 00:57:33;;;;;;;11.53;8.40;;;;;;;;;;748190;186;917417;-60
2023/05/23 00:59:59;;;;;;;10.83;7.70;;;;;;;;;;746945;185;920288;-60
2023/05/23 01:02:26;;;;;;;18.98;7.60;;;;;;;;;;755403;185;941430;-60
2023/05/23 01:04:53;;;;;;;12.07;9.27;;;;;;;;;;747621;186;919515;-60
2023/05/23 01:07:18;;;;;;;13.10;8.13;;;;;;;;;;745929;186;918525;-60
2023/05/23 01:09:44;;;;;;;12.50;8.50;;;;;;;;;;747962;185;915669;-60
2023/05/23 01:12:25;;;;;;;10.03;7.93;;;;;;;;;;753272;183;920797;-60
2023/05/23 01:14:53;;;;;;;13.13;9.50;;;;;;;;;;755182;185;911347;-62
2023/05/23 01:17:21;;;;;;;15.20;9.50;;;;;;;;;;745444;186;914113;-61
2023/05/23 01:19:52;;;;;;;8.77;6.40;;;;;;;;;;744713;185;914556;-62
2023/05/23 01:22:21;;;;;;;10.20;6.90;;;;;;;;;;753635;185;919701;-61
2023/05/23 01:24:48;;;;;;;16.80;8.40;;;;;;;;;;751282;185;917438;-62
2023/05/23 01:27:20;;;;;;;11.53;6.67;;;;;;;;;;751825;185;918819;-61
2023/05/23 01:29:46;;;;;;;9.75;6.55;;;;;;;;;;747696;186;913044;-62
2023/05/23 01:32:12;;;;;;;9.93;7.40;;;;;;;;;;748097;186;922470;-62
2023/05/23 01:34:37;;;;;;;9.60;6.87;;;;;;;;;;737407;186;919037;-61
2023/05/23 01:37:03;;;;;;;7.53;6.13;;;;;;;;;;748501;185;921424;-62
2023/05/23 01:39:29;;;;;;;11.77;7.13;;;;;;;;;;748971;185;857950;-61
2023/05/23 01:41:55;;;;;;;8.30;6.77;;;;;;;;;;752700;185;816654;-61
2023/05/23 01:44:21;;;;;;;11.13;6.80;;;;;;;;;;747655;185;918723;-61
2023/05/23 01:46:47;;;;;;;14.50;7.97;;;;;;;;;;751323;186;826988;-61
2023/05/23 01:49:13;;;;;;;8.90;6.70;;;;;;;;;;755717;186;912190;-61
2023/05/23 01:51:38;;;;;;;10.10;6.63;;;;;;;;;;748742;185;916667;-62
2023/05/23 01:54:04;;;;;;;7.90;6.83;;;;;;;;;;750774;185;905371;-61
2023/05/23 01:56:30;;;;;;;9.50;6.87;;;;;;;;;;752931;186;911194;-62
2023/05/23 01:58:56;;;;;;;9.83;6.53;;;;;;;;;;749366;186;916740;-61
2023/05/23 02:01:22;;;;;;;12.00;8.30;;;;;;;;;;745978;186;915754;-61
2023/05/23 02:03:48;;;;;;;14.20;7.77;;;;;;;;;;749134;185;921873;-61
2023/05/23 02:06:13;;;;;;;11.17;9.20;;;;;;;;;;749760;185;940594;-62
2023/05/23 02:08:39;;;;;;;11.97;6.87;;;;;;;;;;749960;185;919754;-61
2023/05/23 02:11:07;;;;;;;9.83;7.20;;;;;;;;;;747017;186;819871;-62
2023/05/23 02:13:31;;;;;;;13.97;8.90;;;;;;;;;;749502;186;943332;-61
2023/05/23 02:15:57;;;;;;;11.90;9.10;;;;;;;;;;747777;186;916304;-61
2023/05/23 02:18:25;;;;;;;13.30;9.60;;;;;;;;;;747648;186;919168;-62
2023/05/23 02:20:48;;;;;;;18.57;9.23;;;;;;;;;;753863;186;918957;-62
2023/05/23 02:23:14;;;;;;;16.37;9.33;;;;;;;;;;750597;184;921591;-61
2023/05/23 02:25:40;;;;;;;15.53;10.13;;;;;;;;;;754241;185;921723;-63
2023/05/23 02:28:06;;;;;;;12.60;8.70;;;;;;;;;;753679;185;919436;-61
2023/05/23 02:30:32;;;;;;;14.20;9.07;;;;;;;;;;738395;185;921104;-63
2023/05/23 02:32:58;;;;;;;25.53;10.50;;;;;;;;;;750348;185;915933;-63
2023/05/23 02:35:24;;;;;;;20.73;10.10;;;;;;;;;;753063;185;918943;-62
2023/05/23 02:37:49;;;;;;;13.53;9.53;;;;;;;;;;754780;184;918339;-62
2023/05/23 02:40:15;;;;;;;16.50;11.73;;;;;;;;;;751534;184;919339;-61
2023/05/23 02:42:41;;;;;;;16.67;11.15;;;;;;;;;;744829;185;918700;-62
2023/05/23 02:45:07;;;;;;;15.20;10.97;;;;;;;;;;751535;186;899844;-61
2023/05/23 02:47:33;;;;;;;16.97;11.13;;;;;;;;;;751139;185;918826;-62
2023/05/23 02:49:59;;;;;;;15.20;10.93;;;;;;;;;;744759;185;914213;-63
2023/05/23 02:52:25;;;;;;;14.80;11.57;;;;;;;;;;753439;185;817576;-62
2023/05/23 02:54:51;;;;;;;13.20;10.47;;;;;;;;;;750502;185;916882;-62
2023/05/23 02:57:17;;;;;;;15.50;10.37;;;;;;;;;;743365;185;897779;-63
2023/05/23 02:59:43;;;;;;;14.10;10.37;;;;;;;;;;748784;186;919094;-62
2023/05/23 03:02:08;;;;;;;17.07;10.73;;;;;;;;;;749845;185;918385;-63
2023/05/23 03:04:36;;;;;;;13.97;10.13;;;;;;;;;;747753;185;919356;-62
2023/05/23 03:07:02;;;;;;;14.00;11.07;;;;;;;;;;750285;185;918604;-61
2023/05/23 03:09:26;;;;;;;21.17;11.13;;;;;;;;;;756625;186;926525;-61
2023/05/23 03:11:52;;;;;;;19.60;9.70;;;;;;;;;;752877;185;918843;-62
2023/05/23 03:14:18;;;;;;;16.60;10.90;;;;;;;;;;743819;185;919150;-62
2023/05/23 03:16:44;;;;;;;15.60;10.50;;;;;;;;;;745151;186;910425;-61
2023/05/23 03:19:09;;;;;;;16.43;10.80;;;;;;;;;;750639;185;919577;-61
2023/05/23 03:21:35;;;;;;;16.13;9.60;;;;;;;;;;751059;186;1021428;-62
2023/05/23 03:24:01;;;;;;;19.00;10.00;;;;;;;;;;751145;186;918807;-61
2023/05/23 03:26:27;;;;;;;15.87;9.40;;;;;;;;;;749344;186;924263;-61
2023/05/23 03:28:53;;;;;;;16.10;11.00;;;;;;;;;;747487;185;915449;-61
2023/05/23 03:31:19;;;;;;;13.90;10.43;;;;;;;;;;747685;186;918827;-62
2023/05/23 03:33:44;;;;;;;15.43;9.00;;;;;;;;;;744040;185;1637036;-62
2023/05/23 03:36:10;;;;;;;13.33;9.50;;;;;;;;;;750339;185;920735;-61
2023/05/23 03:38:36;;;;;;;25.90;9.53;;;;;;;;;;749446;185;1019929;-61
2023/05/23 03:41:02;;;;;;;17.17;9.83;;;;;;;;;;753152;185;848195;-61
2023/05/23 03:43:28;;;;;;;13.90;8.53;;;;;;;;;;748715;185;918742;-62
2023/05/23 03:45:54;;;;;;;11.90;9.77;;;;;;;;;;749866;186;918074;-62
2023/05/23 03:48:19;;;;;;;14.53;8.67;;;;;;;;;;749049;185;919197;-63
2023/05/23 03:50:45;;;;;;;13.23;9.60;;;;;;;;;;751115;185;917885;-62
2023/05/23 03:53:11;;;;;;;15.90;9.00;;;;;;;;;;748709;185;922163;-61
2023/05/23 03:55:38;;;;;;;15.60;9.47;;;;;;;;;;752565;186;935751;-62
2023/05/23 03:58:03;;;;;;;13.40;9.53;;;;;;;;;;757850;182;920515;-61
2023/05/23 04:00:29;;;;;;;13.57;8.67;;;;;;;;;;744495;185;918504;-62
2023/05/23 04:02:56;;;;;;;12.37;9.37;;;;;;;;;;749587;185;918616;-62
2023/05/23 04:05:21;;;;;;;14.80;8.70;;;;;;;;;;751619;185;917649;-63
2023/05/23 04:07:47;;;;;;;15.30;8.90;;;;;;;;;;742766;185;918217;-61
2023/05/23 04:10:13;;;;;;;12.27;8.00;;;;;;;;;;747534;185;917805;-61
2023/05/23 04:12:40;;;;;;;12.00;7.80;;;;;;;;;;751317;185;920245;-62
2023/05/23 04:15:05;;;;;;;12.30;8.50;;;;;;;;;;747566;186;918594;-62
2023/05/23 04:17:30;;;;;;;14.13;7.67;;;;;;;;;;752496;185;893771;-61
2023/05/23 04:19:56;;;;;;;24.80;8.40;;;;;;;;;;755945;185;916972;-62
2023/05/23 04:22:22;;;;;;;10.20;7.80;;;;;;;;;;742179;186;917283;-63
2023/05/23 04:24:48;;;;;;;14.37;8.20;;;;;;;;;;746947;186;914869;-63
2023/05/23 04:27:14;;;;;;;10.17;7.50;;;;;;;;;;745219;186;919116;-63
2023/05/23 04:29:40;;;;;;;12.77;9.40;;;;;;;;;;743256;186;917111;-62
2023/05/23 04:32:06;;;;;;;10.73;7.60;;;;;;;;;;750383;186;919477;-62
2023/05/23 04:34:34;;;;;;;15.17;8.03;;;;;;;;;;748509;184;918584;-63
2023/05/23 04:37:02;;;;;;;10.23;6.97;;;;;;;;;;755334;185;819055;-62
2023/05/23 04:39:28;;;;;;;11.47;7.20;;;;;;;;;;747948;185;918818;-63
2023/05/23 04:41:53;;;;;;;13.80;7.80;;;;;;;;;;751558;186;915473;-62
2023/05/23 04:44:19;;;;;;;11.03;8.23;;;;;;;;;;750068;186;1018393;-63
2023/05/23 04:46:45;;;;;;;12.40;7.67;;;;;;;;;;749449;185;917069;-62
2023/05/23 04:49:11;;;;;;;9.90;6.80;;;;;;;;;;752057;185;916385;-63
2023/05/23 04:51:37;;;;;;;11.37;7.00;;;;;;;;;;758178;184;633405;-62
2023/05/23 04:54:03;;;;;;;8.93;7.00;;;;;;;;;;756087;185;638255;-63
2023/05/23 04:56:28;;;;;;;10.40;6.70;;;;;;;;;;746516;185;628704;-64
2023/05/23 04:58:54;;;;;;;9.90;7.03;;;;;;;;;;751446;185;921606;-62
2023/05/23 05:01:23;;;;;;;11.57;7.30;;;;;;;;;;751843;185;816359;-62
2023/05/23 05:03:47;;;;;;;12.83;7.17;;;;;;;;;;748737;185;818617;-62
2023/05/23 05:06:13;;;;;;;9.63;7.03;;;;;;;;;;743034;185;916342;-63
2023/05/23 05:08:39;;;;;;;13.73;7.20;;;;;;;;;;751195;185;815889;-62
2023/05/23 05:11:05;;;;;;;17.50;8.20;;;;;;;;;;745464;185;890907;-62
2023/05/23 05:13:30;;;;;;;11.97;6.70;;;;;;;;;;748066;185;912703;-62
2023/05/23 05:15:57;;;;;;;9.40;7.07;;;;;;;;;;749747;185;915146;-64
2023/05/23 05:18:22;;;;;;;9.47;7.40;;;;;;;;;;753405;185;827353;-64
2023/05/23 05:20:48;;;;;;;13.80;8.30;;;;;;;;;;749673;185;919929;-62
2023/05/23 05:23:14;;;;;;;11.77;7.70;;;;;;;;;;745048;186;914994;-64
2023/05/23 05:25:40;;;;;;;9.10;6.00;;;;;;;;;;752906;186;944250;-62
2023/05/23 05:28:05;;;;;;;8.13;6.13;;;;;;;;;;748707;186;916689;-62
2023/05/23 05:30:34;;;;;;;11.60;6.43;;;;;;;;;;746872;186;831618;-62
2023/05/23 05:33:00;;;;;;;8.53;6.10;;;;;;;;;;752849;185;917900;-62
2023/05/23 05:35:24;;;;;;;7.73;6.20;;;;;;;;;;745423;186;923260;-64
2023/05/23 05:37:50;;;;;;;8.50;5.70;;;;;;;;;;747819;185;921416;-61
2023/05/23 05:40:16;;;;;;;10.20;7.07;;;;;;;;;;748700;186;919183;-62
2023/05/23 05:42:42;;;;;;;9.20;5.90;;;;;;;;;;742916;186;919159;-64
2023/05/23 05:45:10;;;;;;;7.10;5.50;;;;;;;;;;748776;185;919383;-62
2023/05/23 05:47:35;;;;;;;9.13;6.50;;;;;;;;;;744010;186;917127;-64
2023/05/23 05:50:00;;;;;;;11.47;6.00;;;;;;;;;;747497;186;917373;-62
2023/05/23 05:52:26;;;;;;;7.10;6.03;;;;;;;;;;750089;186;918577;-64
2023/05/23 05:54:51;;;;;;;12.60;5.70;;;;;;;;;;749007;185;918069;-62
2023/05/23 05:57:17;;;;;;;8.20;6.37;;;;;;;;;;755200;185;917947;-62
2023/05/23 05:59:43;;;;;;;11.70;6.40;;;;;;;;;;748376;185;917516;-64
2023/05/23 06:02:09;;;;;;;11.63;7.30;;;;;;;;;;746832;185;918389;-62
2023/05/23 06:04:35;;;;;;;12.77;6.47;;;;;;;;;;749640;185;916946;-63
2023/05/23 06:07:01;;;;;;;9.77;6.33;;;;;;;;;;745417;185;920568;-62
2023/05/23 06:09:26;;;;;;;9.57;5.57;;;;;;;;;;749868;185;816514;-61
2023/05/23 06:11:53;;;;;;;10.87;6.60;;;;;;;;;;751961;185;912202;-64
2023/05/23 06:14:19;;;;;;;11.37;6.30;;;;;;;;;;751862;185;919559;-62
2023/05/23 06:16:45;;;;;;;9.20;6.23;;;;;;;;;;747447;185;918884;-64
2023/05/23 06:19:11;;;;;;;8.32;5.90;;;;;;;;;;745069;185;815362;-64
2023/05/23 06:21:37;;;;;;;9.03;5.63;;;;;;;;;;746856;185;943395;-62
2023/05/23 06:24:03;;;;;;;10.47;5.93;;;;;;;;;;749402;184;920830;-62
2023/05/23 06:26:29;;;;;;;8.87;6.10;;;;;;;;;;749453;184;912465;-64
2023/05/23 06:28:55;;;;;;;8.37;5.87;;;;;;;;;;753691;185;791242;-61
2023/05/23 06:31:20;;;;;;;12.57;5.90;;;;;;;;;;747880;186;919582;-62
2023/05/23 06:33:46;;;;;;;8.83;6.30;;;;;;;;;;746174;184;919837;-65
2023/05/23 06:36:12;;;;;;;9.40;6.30;;;;;;;;;;754290;186;918050;-61
2023/05/23 06:38:38;;;;;;;9.80;6.20;;;;;;;;;;748640;186;921114;-64
2023/05/23 06:41:05;;;;;;;12.17;6.90;;;;;;;;;;743742;185;921071;-62
2023/05/23 06:43:30;;;;;;;8.60;5.93;;;;;;;;;;744472;186;863870;-63
2023/05/23 06:45:55;;;;;;;11.05;6.37;;;;;;;;;;752544;184;827745;-64
2023/05/23 06:48:21;;;;;;;9.97;6.90;;;;;;;;;;749077;186;913507;-60
2023/05/23 06:50:47;;;;;;;7.57;6.03;;;;;;;;;;746342;185;913310;-64
2023/05/23 06:53:15;;;;;;;9.50;6.33;;;;;;;;;;755986;186;920212;-63
2023/05/23 06:55:39;;;;;;;13.23;6.50;;;;;;;;;;750939;184;933156;-61
2023/05/23 06:58:05;;;;;;;10.40;6.23;;;;;;;;;;750275;185;920756;-64
2023/05/23 07:00:31;;;;;;;8.30;6.67;;;;;;;;;;749420;184;918932;-61
2023/05/23 07:03:00;;;;;;;8.00;6.23;;;;;;;;;;749758;185;819724;-62
2023/05/23 07:05:22;;;;;;;7.30;6.30;;;;;;;;;;749769;185;920514;-64
2023/05/23 07:07:49;;;;;;;7.77;6.10;;;;;;;;;;749360;185;919123;-65
2023/05/23 07:10:15;;;;;;;9.50;5.80;;;;;;;;;;751215;185;923002;-63
2023/05/23 07:12:40;;;;;;;10.83;5.90;;;;;;;;;;751472;185;919933;-61
2023/05/23 07:15:07;;;;;;;8.70;5.73;;;;;;;;;;749054;185;918116;-64
2023/05/23 07:17:33;;;;;;;8.63;6.07;;;;;;;;;;752065;184;917661;-65
2023/05/23 07:19:59;;;;;;;8.55;5.68;;;;;;;;;;748762;184;919461;-65
2023/05/23 07:22:24;;;;;;;10.43;6.70;;;;;;;;;;749961;184;919493;-65
2023/05/23 07:24:50;;;;;;;7.05;5.62;;;;;;;;;;752918;185;818349;-64
2023/05/23 07:27:16;;;;;;;8.97;5.63;;;;;;;;;;748898;184;923061;-61
2023/05/23 07:29:42;;;;;;;8.65;5.72;;;;;;;;;;752294;184;819442;-61
2023/05/23 07:32:08;;;;;;;9.50;5.93;;;;;;;;;;755283;185;1021923;-62
2023/05/23 07:34:34;;;;;;;7.43;6.37;;;;;;;;;;742219;187;919319;-61
2023/05/23 07:37:00;;;;;;;10.60;6.13;;;;;;;;;;746090;184;923866;-65
2023/05/23 07:39:26;;;;;;;7.50;5.43;;;;;;;;;;747213;185;919015;-61
2023/05/23 07:41:51;;;;;;;10.63;6.00;;;;;;;;;;747148;185;914164;-65
2023/05/23 07:44:17;;;;;;;8.87;6.10;;;;;;;;;;746857;185;919259;-61
2023/05/23 07:46:43;;;;;;;7.50;6.30;;;;;;;;;;746330;185;919329;-65
2023/05/23 07:49:09;;;;;;;11.30;6.30;;;;;;;;;;746823;186;917796;-64
2023/05/23 07:51:35;;;;;;;9.93;5.47;;;;;;;;;;744638;186;919129;-65
2023/05/23 07:54:00;;;;;;;6.63;5.37;;;;;;;;;;750689;186;931210;-61
2023/05/23 07:56:26;;;;;;;7.80;5.60;;;;;;;;;;754264;186;918510;-61
2023/05/23 07:58:52;;;;;;;7.47;6.03;;;;;;;;;;746983;186;925517;-62
2023/05/23 08:01:19;;;;;;;7.80;5.77;;;;;;;;;;750637;186;918563;-65
2023/05/23 08:03:44;;;;;;;8.47;6.00;;;;;;;;;;750103;185;849452;-66
2023/05/23 08:06:10;;;;;;;7.03;5.23;;;;;;;;;;745883;184;918542;-62
2023/05/23 08:08:36;;;;;;;6.73;5.47;;;;;;;;;;747017;185;919134;-65
2023/05/23 08:11:01;;;;;;;8.60;4.60;;;;;;;;;;744163;186;919214;-62
2023/05/23 08:13:27;;;;;;;9.20;5.63;;;;;;;;;;750391;185;920796;-61
2023/05/23 08:15:53;;;;;;;8.60;5.40;;;;;;;;;;747209;185;922090;-62
2023/05/23 08:18:19;;;;;;;12.17;5.70;;;;;;;;;;747092;185;918879;-62
2023/05/23 08:20:45;;;;;;;8.00;5.10;;;;;;;;;;751732;183;919344;-67
2023/05/23 08:23:11;;;;;;;9.00;5.77;;;;;;;;;;746204;185;919017;-66
2023/05/23 08:25:37;;;;;;;9.47;6.60;;;;;;;;;;750840;185;918916;-66
2023/05/23 08:28:02;;;;;;;8.23;6.40;;;;;;;;;;748514;186;920744;-66
2023/05/23 08:30:28;;;;;;;7.13;5.60;;;;;;;;;;749067;185;921239;-66
2023/05/23 08:32:54;;;;;;;8.60;5.30;;;;;;;;;;747380;185;921811;-61
2023/05/23 08:35:20;;;;;;;7.23;6.47;;;;;;;;;;751391;185;938883;-66
2023/05/23 08:37:46;;;;;;;10.30;5.80;;;;;;;;;;760449;181;818239;-62
2023/05/23 08:40:20;;;;;;;9.00;7.00;;;;;;;;;;745495;185;918858;-67
2023/05/23 08:42:46;;;;;;;9.27;5.90;;;;;;;;;;745904;185;817002;-62
2023/05/23 08:45:12;;;;;;;9.43;5.93;;;;;;;;;;755101;185;917493;-67
2023/05/23 08:47:37;;;;;;;8.17;5.70;;;;;;;;;;748594;185;919634;-62
2023/05/23 08:50:03;;;;;;;9.27;5.93;;;;;;;;;;750648;185;918455;-68
2023/05/23 08:52:29;;;;;;;10.20;5.80;;;;;;;;;;752220;185;816843;-66
2023/05/23 08:54:55;;;;;;;7.47;6.67;;;;;;;;;;758733;184;818351;-67
2023/05/23 08:57:21;;;;;;;8.40;5.90;;;;;;;;;;749973;185;872413;-63
2023/05/23 08:59:47;;;;;;;9.50;5.60;;;;;;;;;;747843;186;919428;-62
2023/05/23 09:02:13;;;;;;;7.00;6.00;;;;;;;;;;753371;186;816062;-68
2023/05/23 09:04:39;;;;;;;11.40;5.77;;;;;;;;;;746846;186;901211;-62
2023/05/23 09:07:05;;;;;;;7.77;5.90;;;;;;;;;;747219;186;919262;-63
2023/05/23 09:09:30;;;;;;;7.63;5.83;;;;;;;;;;753699;186;918882;-62
2023/05/23 09:11:58;;;;;;;7.30;6.00;;;;;;;;;;751328;186;924357;-62
2023/05/23 09:14:22;;;;;;;9.00;5.87;;;;;;;;;;747924;186;919114;-67
2023/05/23 09:16:48;;;;;;;7.80;6.47;;;;;;;;;;750963;186;816329;-63
2023/05/23 09:19:14;;;;;;;8.73;6.00;;;;;;;;;;750675;186;810257;-67
2023/05/23 09:21:42;;;;;;;10.43;6.00;;;;;;;;;;752506;185;813167;-62
2023/05/23 09:24:08;;;;;;;8.30;6.00;;;;;;;;;;747031;185;923952;-68
2023/05/23 09:26:34;;;;;;;11.33;5.90;;;;;;;;;;752267;186;909560;-63
2023/05/23 09:29:00;;;;;;;7.00;6.07;;;;;;;;;;750295;186;914652;-67
2023/05/23 09:31:27;;;;;;;8.57;5.77;;;;;;;;;;747948;185;910447;-63
2023/05/23 09:33:51;;;;;;;7.60;5.87;;;;;;;;;;753146;185;820289;-68
2023/05/23 09:36:17;;;;;;;8.00;6.10;;;;;;;;;;751690;185;820825;-64
2023/05/23 09:38:43;;;;;;;7.93;6.00;;;;;;;;;;753267;185;817290;-69
2023/05/23 09:41:12;;;;;;;9.63;7.23;;;;;;;;;;747615;185;917167;-63
2023/05/23 09:43:38;;;;;;;10.40;6.37;;;;;;;;;;750951;185;910474;-64
2023/05/23 09:46:06;;;;;;;7.87;6.33;;;;;;;;;;746835;184;923079;-64
2023/05/23 09:48:32;;;;;;;8.30;5.90;;;;;;;;;;748029;185;917438;-64
2023/05/23 09:50:58;;;;;;;9.07;5.93;;;;;;;;;;749675;186;617958;-69
2023/05/23 09:53:24;;;;;;;8.87;6.40;;;;;;;;;;749011;184;921249;-64
2023/05/23 09:55:51;;;;;;;10.10;6.07;;;;;;;;;;750654;186;920896;-64
2023/05/23 09:58:16;;;;;;;12.50;6.07;;;;;;;;;;753496;185;919946;-63
2023/05/23 10:00:42;;;;;;;5.83;5.23;;;;;;;;;;747565;185;817371;-64
2023/05/23 10:03:09;;;;;;;8.50;6.10;;;;;;;;;;745190;186;912945;-64
2023/05/23 10:05:37;;;;;;;9.90;6.90;;;;;;;;;;749884;185;917434;-64
2023/05/23 10:08:13;;;;;;;9.10;6.47;;;;;;;;;;755479;181;918780;-70
2023/05/23 10:10:45;;;;;;;9.83;5.90;;;;;;;;;;742969;184;918575;-69
2023/05/23 10:13:11;;;;;;;9.53;6.27;;;;;;;;;;749091;185;920468;-70
2023/05/23 10:15:37;;;;;;;9.50;7.13;;;;;;;;;;751551;186;918960;-69
2023/05/23 10:18:18;;;;;;;8.20;5.90;;;;;;;;;;754681;185;933351;-64
2023/05/23 10:20:44;;;;;;;7.60;6.00;;;;;;;;;;752094;186;915844;-65
2023/05/23 10:23:10;;;;;;;7.00;6.13;;;;;;;;;;750876;185;918194;-70
2023/05/23 10:25:36;;;;;;;10.13;5.97;;;;;;;;;;744348;186;919029;-70
2023/05/23 10:28:01;;;;;;;7.07;5.80;;;;;;;;;;752341;186;919143;-64
2023/05/23 10:30:27;;;;;;;10.40;6.43;;;;;;;;;;748865;184;919973;-69
2023/05/23 10:32:53;;;;;;;11.50;6.57;;;;;;;;;;750396;186;918712;-69
2023/05/23 10:35:20;;;;;;;8.32;5.95;;;;;;;;;;748471;186;917018;-68
2023/05/23 10:37:46;;;;;;;7.00;5.80;;;;;;;;;;742719;188;915960;-64
2023/05/23 10:40:12;;;;;;;10.13;6.60;;;;;;;;;;744654;185;919290;-64
2023/05/23 10:42:56;;;;;;;6.93;5.67;;;;;;;;;;749497;184;917527;-68
2023/05/23 10:45:22;;;;;;;6.93;5.70;;;;;;;;;;742633;185;926267;-63
2023/05/23 10:47:48;;;;;;;8.00;5.30;;;;;;;;;;749672;185;919369;-69
2023/05/23 10:50:14;;;;;;;9.57;6.73;;;;;;;;;;747449;184;922900;-68
2023/05/23 10:52:40;;;;;;;7.77;6.53;;;;;;;;;;744190;185;962998;-69
2023/05/23 10:55:14;;;;;;;8.30;6.47;;;;;;;;;;749710;186;914697;-69
2023/05/23 10:57:42;;;;;;;7.30;6.20;;;;;;;;;;749057;185;905311;-63
2023/05/23 11:00:06;;;;;;;8.67;6.57;;;;;;;;;;749590;185;919983;-69
2023/05/23 11:02:32;;;;;;;7.80;5.60;;;;;;;;;;752144;185;818021;-69
2023/05/23 11:05:03;;;;;;;12.73;6.73;;;;;;;;;;752894;185;910118;-69
2023/05/23 11:07:29;;;;;;;7.73;6.93;;;;;;;;;;747123;185;919769;-69
2023/05/23 11:10:01;;;;;;;9.03;5.80;;;;;;;;;;748492;186;924460;-69
2023/05/23 11:12:33;;;;;;;10.73;5.60;;;;;;;;;;749302;185;919386;-65
2023/05/23 11:14:58;;;;;;;7.37;6.43;;;;;;;;;;746111;185;919555;-64
2023/05/23 11:17:29;;;;;;;8.73;6.23;;;;;;;;;;749750;185;918848;-65
2023/05/23 11:19:55;;;;;;;9.37;6.77;;;;;;;;;;751115;186;914348;-64
2023/05/23 11:22:21;;;;;;;7.20;6.50;;;;;;;;;;744789;186;918252;-65
2023/05/23 11:24:47;;;;;;;8.30;6.67;;;;;;;;;;757487;185;816953;-64
2023/05/23 11:27:13;;;;;;;8.17;6.60;;;;;;;;;;747765;186;918751;-71
2023/05/23 11:29:38;;;;;;;10.10;6.50;;;;;;;;;;744445;185;918863;-66
2023/05/23 11:32:12;;;;;;;10.40;6.47;;;;;;;;;;751981;186;920159;-73
2023/05/23 11:34:37;;;;;;;8.60;6.20;;;;;;;;;;753848;185;921469;-70
2023/05/23 11:37:03;;;;;;;9.83;6.37;;;;;;;;;;744021;186;918476;-63
2023/05/23 11:39:29;;;;;;;8.60;5.90;;;;;;;;;;747462;186;920416;-69
2023/05/23 11:42:00;;;;;;;9.50;6.30;;;;;;;;;;750417;185;919407;-69
2023/05/23 11:44:25;;;;;;;8.77;7.10;;;;;;;;;;747766;186;921682;-70
2023/05/23 11:46:57;;;;;;;7.93;6.97;;;;;;;;;;748282;186;919013;-70
2023/05/23 11:49:23;;;;;;;19.00;7.90;;;;;;;;;;746366;186;1022325;-69
2023/05/23 11:51:50;;;;;;;12.77;6.57;;;;;;;;;;751542;186;916012;-70
2023/05/23 11:54:15;;;;;;;11.00;7.20;;;;;;;;;;745918;186;937252;-69
2023/05/23 11:56:41;;;;;;;12.93;7.70;;;;;;;;;;752415;185;918925;-64
2023/05/23 11:59:06;;;;;;;8.30;6.80;;;;;;;;;;755388;185;813729;-65
2023/05/23 12:01:33;;;;;;;12.10;6.60;;;;;;;;;;750574;185;896662;-65
2023/05/23 12:03:58;;;;;;;7.80;5.97;;;;;;;;;;753283;185;922615;-64
2023/05/23 12:06:24;;;;;;;6.40;5.57;;;;;;;;;;748673;186;850503;-70
2023/05/23 12:08:51;;;;;;;7.50;4.90;;;;;;;;;;746728;185;885063;-71
2023/05/23 12:11:17;;;;;;;9.40;6.60;;;;;;;;;;748248;185;919285;-64
2023/05/23 12:13:43;;;;;;;7.93;6.10;;;;;;;;;;752161;185;918335;-70
2023/05/23 12:16:09;;;;;;;8.60;6.83;;;;;;;;;;753167;185;919449;-71
2023/05/23 12:18:34;;;;;;;11.47;6.27;;;;;;;;;;749236;185;818037;-71
2023/05/23 12:21:01;;;;;;;7.47;6.30;;;;;;;;;;748628;185;919448;-70
2023/05/23 12:23:27;;;;;;;14.90;7.07;;;;;;;;;;751183;185;918892;-70
2023/05/23 12:25:53;;;;;;;10.33;7.07;;;;;;;;;;745795;185;915400;-64
2023/05/23 12:28:19;;;;;;;11.33;7.33;;;;;;;;;;743219;186;917693;-64
2023/05/23 12:30:44;;;;;;;9.27;6.73;;;;;;;;;;748592;186;915243;-64
2023/05/23 12:33:11;;;;;;;11.03;7.67;;;;;;;;;;750716;185;818357;-64
2023/05/23 12:35:37;;;;;;;9.00;7.70;;;;;;;;;;746743;185;925407;-69
2023/05/23 12:38:05;;;;;;;11.53;7.90;;;;;;;;;;749204;186;912241;-69
2023/05/23 12:40:28;;;;;;;11.73;8.23;;;;;;;;;;749154;185;817847;-63
2023/05/23 12:42:54;;;;;;;7.70;6.93;;;;;;;;;;744561;185;919272;-64
2023/05/23 12:45:22;;;;;;;10.53;8.07;;;;;;;;;;739675;186;916487;-69
2023/05/23 12:47:48;;;;;;;11.40;8.33;;;;;;;;;;752758;186;813854;-63
2023/05/23 12:50:14;;;;;;;9.67;6.93;;;;;;;;;;747445;184;908447;-70
2023/05/23 12:52:40;;;;;;;8.33;7.00;;;;;;;;;;743913;186;918034;-64
2023/05/23 12:55:06;;;;;;;12.87;6.43;;;;;;;;;;751343;186;918817;-63
2023/05/23 12:57:32;;;;;;;10.40;7.18;;;;;;;;;;748556;186;916762;-70
2023/05/23 12:59:58;;;;;;;8.07;6.90;;;;;;;;;;749752;185;928843;-64
2023/05/23 13:02:24;;;;;;;7.87;6.07;;;;;;;;;;750487;184;817221;-68
2023/05/23 13:04:50;;;;;;;5.73;4.60;;;;;;;;;;744882;186;915619;-63
2023/05/23 13:07:16;;;;;;;6.37;4.10;;;;;;;;;;750796;185;919622;-70
2023/05/23 13:09:42;;;;;;;5.47;4.17;;;;;;;;;;748621;185;917417;-69
2023/05/23 13:12:08;;;;;;;6.40;4.90;;;;;;;;;;752494;185;843175;-69
2023/05/23 13:14:33;;;;;;;7.30;4.73;;;;;;;;;;749285;185;920374;-69
2023/05/23 13:16:59;;;;;;;7.37;5.10;;;;;;;;;;747560;185;920384;-64
2023/05/23 13:19:25;;;;;;;5.47;4.83;;;;;;;;;;751653;186;919694;-63
2023/05/23 13:21:51;;;;;;;7.30;4.60;;;;;;;;;;748955;186;917586;-64
2023/05/23 13:24:17;;;;;;;5.95;5.30;;;;;;;;;;749814;185;918041;-70
2023/05/23 13:26:42;;;;;;;6.93;5.33;;;;;;;;;;748383;186;917074;-70
2023/05/23 13:29:08;;;;;;;7.43;5.10;;;;;;;;;;749327;186;863482;-70
2023/05/23 13:31:34;;;;;;;6.77;5.57;;;;;;;;;;747451;185;926485;-70
2023/05/23 13:34:00;;;;;;;8.63;5.63;;;;;;;;;;750283;185;917352;-70
2023/05/23 13:36:26;;;;;;;7.00;5.10;;;;;;;;;;747832;186;932053;-70
2023/05/23 13:38:52;;;;;;;8.77;5.00;;;;;;;;;;740530;185;917590;-63
2023/05/23 13:41:17;;;;;;;7.40;6.20;;;;;;;;;;744519;186;919201;-69
2023/05/23 13:43:43;;;;;;;6.90;5.40;;;;;;;;;;749506;186;918774;-70
2023/05/23 13:46:09;;;;;;;6.47;5.27;;;;;;;;;;748715;185;921497;-63
2023/05/23 13:48:35;;;;;;;8.10;5.57;;;;;;;;;;749966;186;818646;-63
2023/05/23 13:51:01;;;;;;;8.20;5.73;;;;;;;;;;749419;186;858144;-71
2023/05/23 13:53:27;;;;;;;4.90;4.10;;;;;;;;;;746480;184;915431;-70
2023/05/23 13:55:53;;;;;;;11.53;4.17;;;;;;;;;;747412;186;919387;-64
2023/05/23 13:58:18;;;;;;;9.57;3.87;;;;;;;;;;743112;186;914779;-65
2023/05/23 14:00:45;;;;;;;5.73;3.93;;;;;;;;;;753402;183;920402;-63
2023/05/23 14:03:10;;;;;;;6.53;3.63;;;;;;;;;;748243;186;918715;-64
2023/05/23 14:05:36;;;;;;;4.90;3.70;;;;;;;;;;746405;186;919316;-65
2023/05/23 14:08:03;;;;;;;7.37;4.07;;;;;;;;;;746916;186;919422;-64
2023/05/23 14:10:28;;;;;;;7.83;4.53;;;;;;;;;;745173;186;919531;-70
2023/05/23 14:12:54;;;;;;;6.80;3.90;;;;;;;;;;750850;186;919169;-62
2023/05/23 14:15:19;;;;;;;5.73;4.50;;;;;;;;;;748557;186;920532;-64
2023/05/23 14:17:45;;;;;;;6.10;4.07;;;;;;;;;;747559;186;936749;-71